Northern Expedition — CFN5364 — position and weather

sailwx.info

Track history (hours):
 
Tides and Currents Weather Stations Pressure Air Temp Water Temp Dewpoint Dewpoint Depression Visibility Wind Speed Wind Dir Waves Ship Positions

Northern Expedition

Last reported at 2014-Oct-31 16:19 UTC. Time now 2014-Nov-01 04:52 UTC.
Position N 54°18' W 130°21'.

Length 151 m; draft 5 m.

Type: Ship. MMSI: 316014054.

Date/timePositionNaut miles runAvg speedWind from/ knotsBaromVisibWave heightAir tempDewpointWater temp
2014-Oct-31 16:19N 54°18' W 130°21'0 0.0
2014-Oct-31 15:33N 54°18' W 130°21'0 0.0
2014-Oct-31 14:33N 54°18' W 130°21'1 1.3
2014-Oct-31 13:33N 54°17' W 130°22'9 7.9
2014-Oct-31 12:26N 54°08' W 130°25'7 0.4
2014-Oct-30 17:22N 54°15' W 130°21'3 3.6
2014-Oct-30 16:33N 54°18' W 130°21'0 0.0
2014-Oct-30 15:33N 54°18' W 130°21'0 0.0
2014-Oct-30 14:33N 54°18' W 130°21'0 0.0
2014-Oct-30 13:33N 54°18' W 130°21'0 0.0
2014-Oct-30 12:33N 54°18' W 130°21'0 0.0
2014-Oct-30 11:33N 54°18' W 130°21'0 0.0
2014-Oct-30 10:33N 54°18' W 130°21'0 0.0
2014-Oct-30 09:33N 54°18' W 130°21'0 0.0
2014-Oct-30 08:33N 54°18' W 130°21'0 0.0
2014-Oct-30 07:33N 54°18' W 130°21'0 0.0
2014-Oct-30 06:33N 54°18' W 130°21'0 0.0
2014-Oct-30 05:33N 54°18' W 130°21'0 0.0
2014-Oct-30 04:33N 54°18' W 130°21'0 0.0
2014-Oct-30 03:33N 54°18' W 130°21'0 0.0
2014-Oct-30 02:33N 54°18' W 130°21'0 0.0
2014-Oct-30 01:33N 54°18' W 130°21'0 0.0
2014-Oct-30 00:33N 54°18' W 130°21'0 0.0
2014-Oct-29 23:33N 54°18' W 130°21'0 0.0
2014-Oct-29 20:33N 54°18' W 130°21'0 0.0
2014-Oct-29 19:33N 54°18' W 130°21'0 0.0
2014-Oct-29 18:33N 54°18' W 130°21'0 0.0
2014-Oct-29 17:33N 54°18' W 130°21'0 0.0
2014-Oct-29 16:33N 54°18' W 130°21'0 0.0
2014-Oct-29 15:33N 54°18' W 130°21'0 0.0
2014-Oct-29 14:33N 54°18' W 130°21'0 0.0
2014-Oct-29 13:33N 54°18' W 130°21'0 0.0
2014-Oct-29 04:33N 54°18' W 130°21'0 0.0
2014-Oct-29 03:33N 54°18' W 130°21'0 0.0
2014-Oct-29 02:33N 54°18' W 130°21'0 0.0
2014-Oct-29 01:33N 54°18' W 130°21'0 0.0
2014-Oct-27 02:33N 54°18' W 130°21'0 0.0
2014-Oct-27 01:33N 54°18' W 130°21'0 0.0
2014-Oct-27 00:33N 54°18' W 130°21'0 0.0
2014-Oct-26 23:33N 54°18' W 130°21'0 0.0
2014-Oct-26 22:33N 54°18' W 130°21'18910.5
2014-Oct-26 04:33N 51°32' W 127°52'1715.8
2014-Oct-26 03:28N 51°15' W 127°53'1516.0
2014-Oct-26 02:33N 51°01' W 127°46'1615.9
2014-Oct-26 01:33N 50°50' W 127°28'6 6.0
2014-Oct-26 00:33N 50°44' W 127°27'0 0.0
2014-Oct-25 23:33N 50°44' W 127°27'0 0.0
2014-Oct-25 22:33N 50°44' W 127°27'0 0.0
2014-Oct-25 21:27N 50°44' W 127°27'0 0.0
2014-Oct-25 20:27N 50°44' W 127°27'0 0.0
2014-Oct-25 18:33N 50°44' W 127°27'0 0.0
2014-Oct-25 17:33N 50°44' W 127°27'0 0.0
2014-Oct-25 16:33N 50°44' W 127°27'0 0.0
2014-Oct-25 15:33N 50°44' W 127°27'1010.0
2014-Oct-25 14:33N 50°52' W 127°35'1414.4
2014-Oct-25 13:33N 51°04' W 127°48'1414.1
2014-Oct-25 12:32N 51°18' W 127°52'19910.9
2014-Oct-24 18:19N 54°16' W 130°21'2 3.2
2014-Oct-24 17:33N 54°18' W 130°21'  
2014-Oct-22 07:20N 54°18' W 130°21'0 0.0
2014-Oct-22 06:33N 54°18' W 130°21'0 0.0
2014-Oct-22 05:33N 54°18' W 130°21'0 0.0
2014-Oct-22 04:33N 54°18' W 130°21'0 0.0
2014-Oct-22 03:33N 54°18' W 130°21'0 0.0
2014-Oct-22 02:34N 54°18' W 130°21'0 0.0
2014-Oct-22 01:33N 54°18' W 130°21'0 0.0
2014-Oct-22 00:33N 54°18' W 130°21'1 0.9
2014-Oct-21 23:33N 54°17' W 130°22'  
Track history (hours):
 
Tides and Currents Weather Stations Pressure Air Temp Water Temp Dewpoint Dewpoint Depression Visibility Wind Speed Wind Dir Waves Ship Positions

Northern Expedition

Last reported at 2014-Oct-31 16:19 UTC. Time now 2014-Nov-01 04:52 UTC.
Position N 54°18' W 130°21'.

Length 151 m; draft 5 m.

Type: Ship. MMSI: 316014054.

Date/timePositionNaut miles runAvg speedWind from/ knotsBaromVisibWave heightAir tempDewpointWater temp
2014-Oct-31 16:19N 54°18' W 130°21'0 0.0
2014-Oct-31 15:33N 54°18' W 130°21'0 0.0
2014-Oct-31 14:33N 54°18' W 130°21'1 1.3
2014-Oct-31 13:33N 54°17' W 130°22'9 7.9
2014-Oct-31 12:26N 54°08' W 130°25'7 0.4
2014-Oct-30 17:22N 54°15' W 130°21'3 3.6
2014-Oct-30 16:33N 54°18' W 130°21'0 0.0
2014-Oct-30 15:33N 54°18' W 130°21'0 0.0
2014-Oct-30 14:33N 54°18' W 130°21'0 0.0
2014-Oct-30 13:33N 54°18' W 130°21'0 0.0
2014-Oct-30 12:33N 54°18' W 130°21'0 0.0
2014-Oct-30 11:33N 54°18' W 130°21'0 0.0
2014-Oct-30 10:33N 54°18' W 130°21'0 0.0
2014-Oct-30 09:33N 54°18' W 130°21'0 0.0
2014-Oct-30 08:33N 54°18' W 130°21'0 0.0
2014-Oct-30 07:33N 54°18' W 130°21'0 0.0
2014-Oct-30 06:33N 54°18' W 130°21'0 0.0
2014-Oct-30 05:33N 54°18' W 130°21'0 0.0
2014-Oct-30 04:33N 54°18' W 130°21'0 0.0
2014-Oct-30 03:33N 54°18' W 130°21'0 0.0
2014-Oct-30 02:33N 54°18' W 130°21'0 0.0
2014-Oct-30 01:33N 54°18' W 130°21'0 0.0
2014-Oct-30 00:33N 54°18' W 130°21'0 0.0
2014-Oct-29 23:33N 54°18' W 130°21'0 0.0
2014-Oct-29 20:33N 54°18' W 130°21'0 0.0
2014-Oct-29 19:33N 54°18' W 130°21'0 0.0
2014-Oct-29 18:33N 54°18' W 130°21'0 0.0
2014-Oct-29 17:33N 54°18' W 130°21'0 0.0
2014-Oct-29 16:33N 54°18' W 130°21'0 0.0
2014-Oct-29 15:33N 54°18' W 130°21'0 0.0
2014-Oct-29 14:33N 54°18' W 130°21'0 0.0
2014-Oct-29 13:33N 54°18' W 130°21'0 0.0
2014-Oct-29 04:33N 54°18' W 130°21'0 0.0
2014-Oct-29 03:33N 54°18' W 130°21'0 0.0
2014-Oct-29 02:33N 54°18' W 130°21'0 0.0
2014-Oct-29 01:33N 54°18' W 130°21'0 0.0
2014-Oct-27 02:33N 54°18' W 130°21'0 0.0
2014-Oct-27 01:33N 54°18' W 130°21'0 0.0
2014-Oct-27 00:33N 54°18' W 130°21'0 0.0
2014-Oct-26 23:33N 54°18' W 130°21'0 0.0
2014-Oct-26 22:33N 54°18' W 130°21'18910.5
2014-Oct-26 04:33N 51°32' W 127°52'1715.8
2014-Oct-26 03:28N 51°15' W 127°53'1516.0
2014-Oct-26 02:33N 51°01' W 127°46'1615.9
2014-Oct-26 01:33N 50°50' W 127°28'6 6.0
2014-Oct-26 00:33N 50°44' W 127°27'0 0.0
2014-Oct-25 23:33N 50°44' W 127°27'0 0.0
2014-Oct-25 22:33N 50°44' W 127°27'0 0.0
2014-Oct-25 21:27N 50°44' W 127°27'0 0.0
2014-Oct-25 20:27N 50°44' W 127°27'0 0.0
2014-Oct-25 18:33N 50°44' W 127°27'0 0.0
2014-Oct-25 17:33N 50°44' W 127°27'0 0.0
2014-Oct-25 16:33N 50°44' W 127°27'0 0.0
2014-Oct-25 15:33N 50°44' W 127°27'1010.0
2014-Oct-25 14:33N 50°52' W 127°35'1414.4
2014-Oct-25 13:33N 51°04' W 127°48'1414.1
2014-Oct-25 12:32N 51°18' W 127°52'19910.9
2014-Oct-24 18:19N 54°16' W 130°21'2 3.2
2014-Oct-24 17:33N 54°18' W 130°21'  
2014-Oct-22 07:20N 54°18' W 130°21'0 0.0
2014-Oct-22 06:33N 54°18' W 130°21'0 0.0
2014-Oct-22 05:33N 54°18' W 130°21'0 0.0
2014-Oct-22 04:33N 54°18' W 130°21'0 0.0
2014-Oct-22 03:33N 54°18' W 130°21'0 0.0
2014-Oct-22 02:34N 54°18' W 130°21'0 0.0
2014-Oct-22 01:33N 54°18' W 130°21'0 0.0
2014-Oct-22 00:33N 54°18' W 130°21'1 0.9
2014-Oct-21 23:33N 54°17' W 130°22'  

Dump ship's entire track history